EBOS/OST METAR and TAF weather

Enter ICAO airport designator
Station Type Date Time Source
EBOS METAR 2022/01/18 07:50 UTC NOAA

EBOS 180750Z 20003KT 0100 R08/0250N R26/0325N FZFG VV001 M00/M00 Q1039 BECMG 0700 FG BKN002


Station Type Date Time Source
EBOS Decoded METAR 2022/01/18 07:50 UTC NOAA

Oostende Airport , Belgium (EBOS) 51-12N 002-52E 5M
Jan 18, 2022 - 02:50 AM EST / 2022.01.18 0750 UTC
Wind: from the SSW (200 degrees) at 3 MPH (3 KT):0
Visibility: less than 1 mile:0
Sky conditions: obscured
Weather: freezing fog
Temperature: 32 F (0 C)
Dew Point: 32 F (0 C)
Relative Humidity: 100%
Pressure (altimeter): 30.68 in. Hg (1039 hPa)
ob: EBOS 180750Z 20003KT 0100 R08/0250N R26/0325N FZFG VV001 M00/M00 Q1039 BECMG 0700 FG BKN002
cycle: 8

Station Type Date Time Source
EBOS TAF 2022/01/18 06:27 UTC NOAA

TAF EBOS 180500Z 1806/1912 19003KT 1200 BCFG NSC
TEMPO 1806/1811 0300 FZFG FG BKN001
BECMG 1810/1813 6000 NSW SCT008 BKN025
TEMPO 1822/1910 4500 BR BKN012 PROB40
TEMPO 1900/1909 2500 -DZ BKN006 PROB30
TEMPO 1900/1906 0600 FG BKN002
BECMG 1908/1910 25012KT

Example: see airport list